createdAt,value
2018-05-25T05:27:00.398Z,12.53
2018-05-25T05:29:30.767Z,11.27
2018-05-25T05:32:01.194Z,9.70
2018-05-25T05:34:31.779Z,9.20
2018-05-25T05:37:03.388Z,8.70
2018-05-25T05:39:34.044Z,8.93
2018-05-25T05:42:05.456Z,9.40
2018-05-25T05:44:36.821Z,7.20
2018-05-25T05:47:07.208Z,8.80
2018-05-25T05:49:38.988Z,7.90
2018-05-25T05:52:09.610Z,8.43
2018-05-25T05:54:40.410Z,9.30
2018-05-25T05:57:10.556Z,10.43
2018-05-25T05:59:40.675Z,9.47
2018-05-25T06:02:11.103Z,10.80
2018-05-25T06:07:24.787Z,10.73
2018-05-25T06:09:55.744Z,10.67
2018-05-25T06:12:26.982Z,9.27
2018-05-25T06:14:57.232Z,10.17
2018-05-25T06:17:28.037Z,9.30
2018-05-25T06:19:58.358Z,10.13
2018-05-25T06:22:28.461Z,8.60
2018-05-25T06:24:58.733Z,9.90
2018-05-25T06:27:29.857Z,10.63
2018-05-25T06:30:00.713Z,8.83
2018-05-25T06:32:31.584Z,8.23
2018-05-25T06:35:01.717Z,7.93
2018-05-25T06:37:32.087Z,8.20
2018-05-25T06:40:04.052Z,8.73
2018-05-25T06:42:34.376Z,7.03
2018-05-25T06:45:07.114Z,7.10
2018-05-25T06:47:38.766Z,8.03
2018-05-25T06:50:08.936Z,6.83
2018-05-25T06:52:39.322Z,7.40
2018-05-25T06:55:09.518Z,8.27
2018-05-25T06:57:39.726Z,7.00
2018-05-25T07:00:10.129Z,7.17
2018-05-25T07:02:41.481Z,6.83
2018-05-25T07:05:12.447Z,7.20
2018-05-25T07:07:42.891Z,7.23
2018-05-25T07:10:13.309Z,8.03
2018-05-25T07:12:44.791Z,5.40
2018-05-25T07:15:21.202Z,6.50
2018-05-25T07:17:52.283Z,7.00
2018-05-25T07:20:26.781Z,7.67
2018-05-25T07:22:59.369Z,6.23
2018-05-25T07:25:34.479Z,6.10
2018-05-25T07:28:05.798Z,5.83
2018-05-25T07:30:36.757Z,6.57
2018-05-25T07:33:09.409Z,6.40
2018-05-25T07:35:39.881Z,8.10
2018-05-25T07:38:11.110Z,6.67
2018-05-25T07:40:42.435Z,6.60
2018-05-25T07:43:14.234Z,7.43
2018-05-25T07:45:45.711Z,6.80
2018-05-25T07:48:17.252Z,6.70
2018-05-25T07:50:47.386Z,7.37
2018-05-25T07:53:18.523Z,7.13
2018-05-25T07:55:48.602Z,6.80
2018-05-25T07:58:19.446Z,6.37
2018-05-25T08:00:53.925Z,6.00
2018-05-25T08:03:25.340Z,6.10
2018-05-25T09:37:48.239Z,6.67
2018-05-25T09:40:18.776Z,5.97
2018-05-25T09:42:51.163Z,6.10
2018-05-25T09:45:22.669Z,6.90
2018-05-25T09:47:54.670Z,6.27
2018-05-25T09:50:26.877Z,6.40
2018-05-25T09:52:58.913Z,7.20
2018-05-25T09:55:30.745Z,6.77
2018-05-25T09:58:01.365Z,6.27
2018-05-25T10:00:32.568Z,6.83
2018-05-25T10:03:05.218Z,6.87
2018-05-25T10:05:35.569Z,7.47
2018-05-25T10:08:06.803Z,7.03
2018-05-25T10:10:38.304Z,8.37
2018-05-25T10:13:08.787Z,7.33
2018-05-25T10:15:40.336Z,7.50
2018-05-25T10:18:11.420Z,6.53
2018-05-25T10:20:44.018Z,6.90
2018-05-25T10:23:14.403Z,7.00
2018-05-25T10:25:46.603Z,6.37
2018-05-25T10:28:16.919Z,5.97
2018-05-25T10:30:47.340Z,6.83
2018-05-25T10:33:17.817Z,6.87
2018-05-25T10:35:57.048Z,6.33
2018-05-25T10:38:27.749Z,6.00
2018-05-25T10:40:59.364Z,6.60
2018-05-25T10:43:30.646Z,6.30
2018-05-25T10:46:01.031Z,6.77
2018-05-25T10:48:33.199Z,6.50
2018-05-25T10:51:06.070Z,6.73
2018-05-25T10:53:38.202Z,7.73
2018-05-25T10:56:09.134Z,7.40
2018-05-25T10:58:40.185Z,7.03
2018-05-25T11:01:10.703Z,6.90
2018-05-25T11:03:44.840Z,6.83
2018-05-25T11:06:18.594Z,6.97
2018-05-25T11:08:50.824Z,7.80
2018-05-25T11:11:21.720Z,7.23
2018-05-25T11:13:53.095Z,8.17
2018-05-25T11:16:23.842Z,8.37
2018-05-25T11:20:16.634Z,7.33
2018-05-25T11:22:49.545Z,8.70
2018-05-25T11:25:20.125Z,8.37
2018-05-25T11:27:50.528Z,7.57
2018-05-25T11:30:22.221Z,8.00
2018-05-25T11:32:54.099Z,7.40
2018-05-25T11:35:24.371Z,7.03
2018-05-25T11:37:54.713Z,7.80
2018-05-25T11:40:24.861Z,7.17
2018-05-25T11:42:57.211Z,9.17
2018-05-25T11:45:28.500Z,7.87
2018-05-25T11:47:58.746Z,7.20
2018-05-25T11:50:29.777Z,7.67
2018-05-25T11:52:59.895Z,8.20
2018-05-25T11:55:30.354Z,7.13
2018-05-25T11:58:01.108Z,6.83
2018-05-25T12:00:32.416Z,7.23
2018-05-25T12:03:02.831Z,6.90
2018-05-25T12:05:33.660Z,7.00
2018-05-25T12:08:03.880Z,7.23
2018-05-25T12:10:34.296Z,6.83
2018-05-25T12:13:05.223Z,6.43
2018-05-25T12:15:35.442Z,7.80
2018-05-25T12:18:07.526Z,8.23
2018-05-25T12:20:39.860Z,8.23
2018-05-25T12:23:12.249Z,7.90
2018-05-25T12:25:44.779Z,7.93
2018-05-25T12:28:15.471Z,7.30
2018-05-25T12:30:46.043Z,7.30
2018-05-25T12:33:17.694Z,7.17
2018-05-25T12:35:47.918Z,7.00
2018-05-25T12:38:19.092Z,7.07
2018-05-25T12:40:49.888Z,7.37
2018-05-25T12:43:21.178Z,6.80
2018-05-25T12:45:51.371Z,7.33
2018-05-25T12:48:21.988Z,6.60
2018-05-25T12:50:52.146Z,6.77
2018-05-25T12:53:23.236Z,7.37
2018-05-25T12:55:54.058Z,6.80
2018-05-25T12:58:25.492Z,6.87
2018-05-25T13:00:56.686Z,6.90
2018-05-25T13:03:27.267Z,6.30
2018-05-25T13:05:58.606Z,6.30
2018-05-25T13:08:32.465Z,6.77
2018-05-25T13:13:48.430Z,6.03
2018-05-25T13:16:20.283Z,7.10
2018-05-25T13:18:55.804Z,6.33
2018-05-25T13:21:27.140Z,6.77
2018-05-25T13:23:58.321Z,6.33
2018-05-25T13:26:29.517Z,6.43
2018-05-25T13:29:00.982Z,6.60
2018-05-25T13:31:33.424Z,6.40
2018-05-25T13:34:10.084Z,6.63
2018-05-25T13:36:47.227Z,6.80
2018-05-25T13:39:23.267Z,6.90
2018-05-25T13:41:56.218Z,6.43
2018-05-25T13:44:27.479Z,5.80
2018-05-25T13:46:58.838Z,5.77
2018-05-25T13:49:29.189Z,6.47
2018-05-25T13:52:02.258Z,6.60
2018-05-25T13:54:34.139Z,5.93
2018-05-25T13:57:04.625Z,6.23
2018-05-25T13:59:36.671Z,5.90
2018-05-25T14:02:07.141Z,5.70
2018-05-25T14:04:38.047Z,5.90
2018-05-25T14:07:08.804Z,6.27
2018-05-25T14:09:42.105Z,5.90
2018-05-25T14:12:17.867Z,6.20
2018-05-25T14:14:52.495Z,6.13
2018-05-25T14:17:23.509Z,6.00
2018-05-25T14:19:54.145Z,5.87
2018-05-25T14:22:25.733Z,5.43
2018-05-25T14:24:56.977Z,5.60
2018-05-25T14:27:27.641Z,5.80
2018-05-25T14:29:58.683Z,6.00
2018-05-25T14:32:29.873Z,5.60
2018-05-25T14:35:00.784Z,5.93
2018-05-25T14:37:32.391Z,5.93
2018-05-25T14:40:03.341Z,5.70
2018-05-25T14:42:34.799Z,6.37
2018-05-25T14:45:06.625Z,5.67
2018-05-25T14:47:38.556Z,6.10
2018-05-25T14:50:16.521Z,5.57
2018-05-25T14:52:47.069Z,5.70
2018-05-25T14:55:19.552Z,6.10
2018-05-25T14:57:50.440Z,5.83
2018-05-25T15:00:21.578Z,6.33
2018-05-25T15:02:52.572Z,6.00
2018-05-25T15:05:26.721Z,6.20
2018-05-25T15:07:57.046Z,5.87
2018-05-25T15:10:28.221Z,5.80
2018-05-25T15:12:58.453Z,5.60
2018-05-25T15:15:28.821Z,6.53
2018-05-25T15:17:59.961Z,5.90
2018-05-25T15:20:31.258Z,5.90
2018-05-25T15:23:01.702Z,5.73
2018-05-25T15:25:32.847Z,5.80
2018-05-25T15:28:07.059Z,6.30
2018-05-25T15:30:37.866Z,6.13
2018-05-25T15:33:08.368Z,5.70
2018-05-25T15:35:41.834Z,5.80
2018-05-25T15:38:14.628Z,5.70
2018-05-25T15:40:45.251Z,5.53
2018-05-25T15:43:16.241Z,5.83
2018-05-25T15:45:49.190Z,5.97
2018-05-25T15:48:20.673Z,6.03
2018-05-25T15:50:52.240Z,5.60
2018-05-25T15:53:25.170Z,5.40
2018-05-25T15:55:57.672Z,5.40
2018-05-25T15:58:29.365Z,6.50
2018-05-25T16:01:00.649Z,6.20
2018-05-25T16:03:33.748Z,5.87
2018-05-25T16:06:08.606Z,5.87
2018-05-25T16:08:40.701Z,6.07
2018-05-25T16:11:14.191Z,5.43
2018-05-25T16:13:46.639Z,6.30
2018-05-25T16:16:19.279Z,5.67
2018-05-25T16:18:51.713Z,6.27
2018-05-25T16:21:24.580Z,6.63
2018-05-25T16:23:58.310Z,6.87
2018-05-25T16:26:29.621Z,6.37
2018-05-25T16:29:00.539Z,7.27
2018-05-25T16:31:31.324Z,7.50
2018-05-25T16:34:02.255Z,7.13
2018-05-25T16:36:33.381Z,7.63
2018-05-25T16:39:04.897Z,7.47
2018-05-25T16:41:36.248Z,7.47
2018-05-25T16:44:07.507Z,7.07
2018-05-25T16:46:38.792Z,7.33
2018-05-25T16:49:09.683Z,7.23
2018-05-25T16:51:41.122Z,7.00
2018-05-25T16:54:12.077Z,6.30
2018-05-25T16:56:44.776Z,6.40
2018-05-25T16:59:15.244Z,6.70
2018-05-25T17:01:47.238Z,6.00
2018-05-25T17:04:18.813Z,5.90
2018-05-25T17:06:49.530Z,6.17
2018-05-25T17:09:21.406Z,8.37
2018-05-25T17:11:53.277Z,7.00
2018-05-25T17:14:24.349Z,8.50
2018-05-25T17:16:55.227Z,7.83
2018-05-25T17:19:29.127Z,6.80
2018-05-25T17:22:00.939Z,6.67
2018-05-25T17:24:33.676Z,6.90
2018-05-25T17:27:05.407Z,7.40
2018-05-25T17:29:36.998Z,6.93
2018-05-25T17:32:07.856Z,6.90
2018-05-25T17:34:38.501Z,7.23
2018-05-25T17:37:09.917Z,7.60
2018-05-25T17:39:42.040Z,7.37
2018-05-25T17:42:13.401Z,7.43
2018-05-25T17:44:44.387Z,8.03
2018-05-25T17:47:15.951Z,8.20
2018-05-25T17:49:47.322Z,7.40
2018-05-25T17:52:18.508Z,8.07
2018-05-25T17:54:52.376Z,8.37
2018-05-25T17:57:23.468Z,7.53
2018-05-25T17:59:56.556Z,7.00
2018-05-25T18:02:28.779Z,7.53
2018-05-25T18:05:04.966Z,6.93
2018-05-25T18:07:38.479Z,7.53
2018-05-25T18:10:11.639Z,6.83
2018-05-25T18:12:42.690Z,6.87
2018-05-25T18:15:15.217Z,8.00
2018-05-25T18:17:50.394Z,7.73
2018-05-25T18:20:25.595Z,7.57
2018-05-25T18:22:59.295Z,7.20
2018-05-25T18:25:30.248Z,7.03
2018-05-25T18:28:01.923Z,6.70
2018-05-25T18:30:34.413Z,6.87
2018-05-25T18:33:06.807Z,7.00
2018-05-25T18:35:37.842Z,7.57
2018-05-25T18:38:09.335Z,7.30
2018-05-25T18:40:41.129Z,7.37
2018-05-25T18:43:16.883Z,7.47
2018-05-25T18:45:54.866Z,7.13
2018-05-25T18:48:26.405Z,8.17
2018-05-25T18:51:00.352Z,8.20
2018-05-25T18:53:32.684Z,7.80
2018-05-25T18:56:04.784Z,7.43
2018-05-25T18:58:37.369Z,7.37
2018-05-25T19:01:10.808Z,7.33
2018-05-25T19:03:41.883Z,7.73
2018-05-25T19:06:12.645Z,8.07
2018-05-25T19:08:44.285Z,8.07
2018-05-25T19:11:17.381Z,8.10
2018-05-25T19:13:49.397Z,8.27
2018-05-25T19:16:22.018Z,8.00
2018-05-25T19:18:53.815Z,7.67
2018-05-25T19:21:26.116Z,8.60
2018-05-25T19:23:57.493Z,7.77
2018-05-25T19:26:29.215Z,7.70
2018-05-25T19:29:02.099Z,8.03
2018-05-25T19:31:33.514Z,7.83
2018-05-25T19:34:04.516Z,7.73
2018-05-25T19:36:35.572Z,8.20
2018-05-25T19:39:08.890Z,8.40
2018-05-25T19:41:42.625Z,8.17
2018-05-25T19:44:13.510Z,8.10
2018-05-25T19:46:45.979Z,7.10
2018-05-25T19:49:18.583Z,7.40
2018-05-25T19:51:52.718Z,6.73
2018-05-25T19:54:24.103Z,7.87
2018-05-25T19:56:54.911Z,8.03
2018-05-25T19:59:25.974Z,7.37
2018-05-25T20:01:57.616Z,7.77
2018-05-25T20:04:27.920Z,7.47
2018-05-25T20:06:58.958Z,7.37
2018-05-25T20:09:29.344Z,7.30
2018-05-25T20:12:02.816Z,7.70
2018-05-25T20:14:33.266Z,8.33
2018-05-25T20:17:03.999Z,7.63
2018-05-25T20:19:35.212Z,7.97
2018-05-25T20:22:05.836Z,7.83
2018-05-25T20:24:37.559Z,7.40
2018-05-25T20:27:09.298Z,7.67
2018-05-25T20:29:41.802Z,7.90
2018-05-25T20:32:14.870Z,7.70
2018-05-25T20:34:46.597Z,7.30
2018-05-25T20:37:18.329Z,7.63
2018-05-25T20:39:51.206Z,8.07
2018-05-25T20:42:24.650Z,7.23
2018-05-25T20:44:56.636Z,7.67
2018-05-25T20:47:32.983Z,7.77
2018-05-25T20:50:06.786Z,7.33
2018-05-25T20:52:40.603Z,7.57
2018-05-25T20:55:12.198Z,7.13
2018-05-25T20:57:46.016Z,7.70
2018-05-25T21:00:18.976Z,7.00
2018-05-25T21:02:50.927Z,7.60
2018-05-25T21:05:22.332Z,7.30
2018-05-25T21:07:53.900Z,7.50
2018-05-25T21:10:26.719Z,7.50
2018-05-25T21:12:59.132Z,7.40
2018-05-25T21:15:31.028Z,7.97
2018-05-25T21:18:02.084Z,7.30
2018-05-25T21:20:37.861Z,7.53
2018-05-25T21:23:12.002Z,7.63
2018-05-25T21:25:45.545Z,7.57
2018-05-25T21:28:16.225Z,7.97
2018-05-25T21:30:48.452Z,7.43
2018-05-25T21:33:20.571Z,7.80
2018-05-25T21:35:52.039Z,7.90
2018-05-25T21:38:24.204Z,7.90
2018-05-25T21:40:54.553Z,8.20
2018-05-25T21:43:26.715Z,7.50
2018-05-25T21:45:57.747Z,7.37
2018-05-25T21:48:29.476Z,7.43
2018-05-25T21:51:00.083Z,7.63
2018-05-25T21:53:33.147Z,7.50
2018-05-25T21:56:05.271Z,7.80
2018-05-25T21:58:36.325Z,7.27
2018-05-25T22:01:11.180Z,6.83
2018-05-25T22:03:41.783Z,7.43
2018-05-25T22:06:13.796Z,8.10
2018-05-25T22:08:45.059Z,7.23
2018-05-25T22:11:18.405Z,7.50
2018-05-25T22:13:50.782Z,8.17
2018-05-25T22:16:21.505Z,7.07
2018-05-25T22:18:52.728Z,7.57
2018-05-25T22:21:24.061Z,7.70
2018-05-25T22:23:55.841Z,8.20
2018-05-25T22:26:26.342Z,6.73
2018-05-25T22:28:58.674Z,7.27
2018-05-25T22:31:30.036Z,7.13
2018-05-25T22:34:00.515Z,8.00
2018-05-25T22:36:32.337Z,7.50
2018-05-25T22:39:06.537Z,6.90
2018-05-25T22:41:37.979Z,7.10
2018-05-25T22:44:19.386Z,7.60
2018-05-25T22:47:00.938Z,8.27
2018-05-25T22:49:42.516Z,6.60
2018-05-25T22:52:22.773Z,7.37
2018-05-25T22:54:54.555Z,7.50
2018-05-25T22:57:24.926Z,7.23
2018-05-25T22:59:55.595Z,7.63
2018-05-25T23:02:26.117Z,6.87
2018-05-25T23:04:56.555Z,6.60
2018-05-25T23:07:28.464Z,7.60
2018-05-25T23:09:58.969Z,7.80
2018-05-25T23:12:29.140Z,7.27
2018-05-25T23:14:59.583Z,7.33
2018-05-25T23:17:29.968Z,7.30
2018-05-25T23:20:01.230Z,7.37
2018-05-25T23:22:32.880Z,7.33
2018-05-25T23:25:04.699Z,7.50
2018-05-25T23:27:36.771Z,7.43
2018-05-25T23:30:07.144Z,7.87
2018-05-25T23:32:40.070Z,7.50
2018-05-25T23:35:12.032Z,7.60
2018-05-25T23:39:03.091Z,7.30
2018-05-25T23:41:34.451Z,7.53
2018-05-25T23:44:04.952Z,7.13
2018-05-25T23:46:36.405Z,7.27
2018-05-25T23:49:07.187Z,8.07
2018-05-25T23:51:37.502Z,7.53
2018-05-25T23:54:07.594Z,7.50
2018-05-25T23:56:37.764Z,7.50
2018-05-25T23:59:09.507Z,7.33
